sensor_id;sensor_type;location;lat;lon;timestamp;P1;durP1;ratioP1;P2;durP2;ratioP2
72127;SDS011;60000;51.030;7.024;2023-08-20T00:00:45;5.60;;;2.63;;
72127;SDS011;60000;51.030;7.024;2023-08-20T00:03:11;5.47;;;2.50;;
72127;SDS011;60000;51.030;7.024;2023-08-20T00:05:38;5.23;;;2.50;;
72127;SDS011;60000;51.030;7.024;2023-08-20T00:08:04;5.28;;;2.40;;
72127;SDS011;60000;51.030;7.024;2023-08-20T00:10:30;4.95;;;2.55;;
72127;SDS011;60000;51.030;7.024;2023-08-20T00:12:56;5.27;;;2.57;;
72127;SDS011;60000;51.030;7.024;2023-08-20T00:15:21;5.38;;;2.50;;
72127;SDS011;60000;51.030;7.024;2023-08-20T00:17:51;5.40;;;2.60;;
72127;SDS011;60000;51.030;7.024;2023-08-20T00:20:17;4.57;;;2.22;;
72127;SDS011;60000;51.030;7.024;2023-08-20T00:22:43;5.07;;;2.45;;
72127;SDS011;60000;51.030;7.024;2023-08-20T00:25:10;5.18;;;2.42;;
72127;SDS011;60000;51.030;7.024;2023-08-20T00:27:36;5.43;;;2.30;;
72127;SDS011;60000;51.030;7.024;2023-08-20T00:30:01;5.93;;;2.73;;
72127;SDS011;60000;51.030;7.024;2023-08-20T00:32:28;5.43;;;2.40;;
72127;SDS011;60000;51.030;7.024;2023-08-20T00:34:54;5.30;;;2.70;;
72127;SDS011;60000;51.030;7.024;2023-08-20T00:37:19;6.03;;;2.97;;
72127;SDS011;60000;51.030;7.024;2023-08-20T00:39:45;6.37;;;2.90;;
72127;SDS011;60000;51.030;7.024;2023-08-20T00:42:10;5.03;;;2.47;;
72127;SDS011;60000;51.030;7.024;2023-08-20T00:44:39;4.77;;;2.47;;
72127;SDS011;60000;51.030;7.024;2023-08-20T00:47:06;8.02;;;2.97;;
72127;SDS011;60000;51.030;7.024;2023-08-20T00:49:32;5.97;;;2.67;;
72127;SDS011;60000;51.030;7.024;2023-08-20T00:51:58;5.30;;;2.70;;
72127;SDS011;60000;51.030;7.024;2023-08-20T00:54:24;4.90;;;2.20;;
72127;SDS011;60000;51.030;7.024;2023-08-20T00:56:51;5.20;;;2.40;;
72127;SDS011;60000;51.030;7.024;2023-08-20T00:59:16;5.40;;;2.40;;
72127;SDS011;60000;51.030;7.024;2023-08-20T01:01:42;6.32;;;2.53;;
72127;SDS011;60000;51.030;7.024;2023-08-20T01:04:08;5.47;;;2.38;;
72127;SDS011;60000;51.030;7.024;2023-08-20T01:06:50;5.33;;;2.83;;
72127;SDS011;60000;51.030;7.024;2023-08-20T01:12:02;6.35;;;2.80;;
72127;SDS011;60000;51.030;7.024;2023-08-20T01:14:28;5.33;;;2.47;;
72127;SDS011;60000;51.030;7.024;2023-08-20T01:16:53;5.00;;;2.28;;
72127;SDS011;60000;51.030;7.024;2023-08-20T01:19:20;5.23;;;2.47;;
72127;SDS011;60000;51.030;7.024;2023-08-20T01:22:10;5.97;;;3.00;;
72127;SDS011;60000;51.030;7.024;2023-08-20T01:25:11;6.23;;;2.87;;
72127;SDS011;60000;51.030;7.024;2023-08-20T01:30:52;6.05;;;3.00;;
72127;SDS011;60000;51.030;7.024;2023-08-20T01:33:19;6.28;;;2.55;;
72127;SDS011;60000;51.030;7.024;2023-08-20T01:35:45;5.60;;;3.05;;
72127;SDS011;60000;51.030;7.024;2023-08-20T01:38:10;5.20;;;2.70;;
72127;SDS011;60000;51.030;7.024;2023-08-20T01:40:36;5.07;;;2.50;;
72127;SDS011;60000;51.030;7.024;2023-08-20T01:43:01;5.20;;;2.40;;
72127;SDS011;60000;51.030;7.024;2023-08-20T01:45:26;5.40;;;2.35;;
72127;SDS011;60000;51.030;7.024;2023-08-20T01:47:52;4.60;;;2.10;;
72127;SDS011;60000;51.030;7.024;2023-08-20T01:50:17;4.83;;;2.13;;
72127;SDS011;60000;51.030;7.024;2023-08-20T01:52:43;4.70;;;2.00;;
72127;SDS011;60000;51.030;7.024;2023-08-20T01:55:09;4.07;;;1.73;;
72127;SDS011;60000;51.030;7.024;2023-08-20T01:57:36;6.25;;;2.10;;
72127;SDS011;60000;51.030;7.024;2023-08-20T02:00:01;4.50;;;1.90;;
72127;SDS011;60000;51.030;7.024;2023-08-20T02:02:26;4.40;;;2.00;;
72127;SDS011;60000;51.030;7.024;2023-08-20T02:04:51;4.17;;;1.80;;
72127;SDS011;60000;51.030;7.024;2023-08-20T02:07:17;4.37;;;1.90;;
72127;SDS011;60000;51.030;7.024;2023-08-20T02:09:42;4.20;;;1.90;;
72127;SDS011;60000;51.030;7.024;2023-08-20T02:12:08;5.23;;;2.23;;
72127;SDS011;60000;51.030;7.024;2023-08-20T02:14:33;4.63;;;1.80;;
72127;SDS011;60000;51.030;7.024;2023-08-20T02:17:00;3.90;;;1.77;;
72127;SDS011;60000;51.030;7.024;2023-08-20T02:19:26;4.78;;;2.03;;
72127;SDS011;60000;51.030;7.024;2023-08-20T02:21:52;4.80;;;1.93;;
72127;SDS011;60000;51.030;7.024;2023-08-20T02:24:18;5.00;;;2.15;;
72127;SDS011;60000;51.030;7.024;2023-08-20T02:26:43;5.23;;;2.20;;
72127;SDS011;60000;51.030;7.024;2023-08-20T02:29:09;4.80;;;1.83;;
72127;SDS011;60000;51.030;7.024;2023-08-20T02:31:34;4.63;;;1.80;;
72127;SDS011;60000;51.030;7.024;2023-08-20T02:34:00;4.23;;;1.90;;
72127;SDS011;60000;51.030;7.024;2023-08-20T02:36:25;4.38;;;1.90;;
72127;SDS011;60000;51.030;7.024;2023-08-20T02:38:51;4.10;;;1.73;;
72127;SDS011;60000;51.030;7.024;2023-08-20T02:41:16;5.03;;;1.83;;
72127;SDS011;60000;51.030;7.024;2023-08-20T02:43:41;5.07;;;2.10;;
72127;SDS011;60000;51.030;7.024;2023-08-20T02:46:06;4.27;;;1.90;;
72127;SDS011;60000;51.030;7.024;2023-08-20T02:48:32;4.60;;;2.00;;
72127;SDS011;60000;51.030;7.024;2023-08-20T02:50:57;5.33;;;2.40;;
72127;SDS011;60000;51.030;7.024;2023-08-20T02:53:22;5.97;;;2.73;;
72127;SDS011;60000;51.030;7.024;2023-08-20T02:55:48;6.73;;;3.07;;
72127;SDS011;60000;51.030;7.024;2023-08-20T02:58:14;5.88;;;2.88;;
72127;SDS011;60000;51.030;7.024;2023-08-20T03:00:39;5.90;;;2.70;;
72127;SDS011;60000;51.030;7.024;2023-08-20T03:03:05;5.45;;;2.85;;
72127;SDS011;60000;51.030;7.024;2023-08-20T03:05:32;7.05;;;3.10;;
72127;SDS011;60000;51.030;7.024;2023-08-20T03:07:58;6.13;;;3.00;;
72127;SDS011;60000;51.030;7.024;2023-08-20T03:10:23;5.87;;;3.10;;
72127;SDS011;60000;51.030;7.024;2023-08-20T03:12:49;9.60;;;3.70;;
72127;SDS011;60000;51.030;7.024;2023-08-20T03:15:14;7.50;;;3.83;;
72127;SDS011;60000;51.030;7.024;2023-08-20T03:17:40;7.43;;;3.80;;
72127;SDS011;60000;51.030;7.024;2023-08-20T03:20:05;6.43;;;3.57;;
72127;SDS011;60000;51.030;7.024;2023-08-20T03:22:32;6.30;;;3.30;;
72127;SDS011;60000;51.030;7.024;2023-08-20T03:24:57;6.43;;;3.05;;
72127;SDS011;60000;51.030;7.024;2023-08-20T03:27:22;5.73;;;2.90;;
72127;SDS011;60000;51.030;7.024;2023-08-20T03:29:48;6.20;;;3.20;;
72127;SDS011;60000;51.030;7.024;2023-08-20T03:32:13;5.75;;;2.80;;
72127;SDS011;60000;51.030;7.024;2023-08-20T03:34:39;5.30;;;2.67;;
72127;SDS011;60000;51.030;7.024;2023-08-20T03:37:04;5.77;;;2.90;;
72127;SDS011;60000;51.030;7.024;2023-08-20T03:39:30;5.40;;;2.90;;
72127;SDS011;60000;51.030;7.024;2023-08-20T03:41:56;4.93;;;2.38;;
72127;SDS011;60000;51.030;7.024;2023-08-20T03:44:22;5.35;;;2.33;;
72127;SDS011;60000;51.030;7.024;2023-08-20T03:46:47;5.73;;;2.90;;
72127;SDS011;60000;51.030;7.024;2023-08-20T03:49:13;5.93;;;2.80;;
72127;SDS011;60000;51.030;7.024;2023-08-20T03:51:38;5.30;;;2.80;;
72127;SDS011;60000;51.030;7.024;2023-08-20T03:54:04;6.13;;;3.35;;
72127;SDS011;60000;51.030;7.024;2023-08-20T03:56:29;5.40;;;2.50;;
72127;SDS011;60000;51.030;7.024;2023-08-20T03:58:55;5.60;;;2.93;;
72127;SDS011;60000;51.030;7.024;2023-08-20T04:01:20;6.33;;;3.63;;
72127;SDS011;60000;51.030;7.024;2023-08-20T04:03:46;5.47;;;2.93;;
72127;SDS011;60000;51.030;7.024;2023-08-20T04:06:12;5.40;;;2.75;;
72127;SDS011;60000;51.030;7.024;2023-08-20T04:08:38;4.80;;;2.40;;
72127;SDS011;60000;51.030;7.024;2023-08-20T04:11:03;8.67;;;3.27;;
72127;SDS011;60000;51.030;7.024;2023-08-20T04:13:29;7.60;;;4.60;;
72127;SDS011;60000;51.030;7.024;2023-08-20T04:15:55;7.07;;;4.17;;
72127;SDS011;60000;51.030;7.024;2023-08-20T04:18:20;7.35;;;3.70;;
72127;SDS011;60000;51.030;7.024;2023-08-20T04:20:47;7.60;;;4.38;;
72127;SDS011;60000;51.030;7.024;2023-08-20T04:23:12;6.93;;;4.03;;
72127;SDS011;60000;51.030;7.024;2023-08-20T04:25:38;6.47;;;3.17;;
72127;SDS011;60000;51.030;7.024;2023-08-20T04:28:03;5.82;;;3.33;;
72127;SDS011;60000;51.030;7.024;2023-08-20T04:30:29;7.00;;;3.70;;
72127;SDS011;60000;51.030;7.024;2023-08-20T04:32:54;6.57;;;3.70;;
72127;SDS011;60000;51.030;7.024;2023-08-20T04:35:19;6.03;;;3.30;;
72127;SDS011;60000;51.030;7.024;2023-08-20T04:37:45;5.75;;;3.22;;
72127;SDS011;60000;51.030;7.024;2023-08-20T04:40:11;5.93;;;3.00;;
72127;SDS011;60000;51.030;7.024;2023-08-20T04:42:36;5.75;;;2.90;;
72127;SDS011;60000;51.030;7.024;2023-08-20T04:45:02;5.77;;;3.20;;
72127;SDS011;60000;51.030;7.024;2023-08-20T04:47:27;5.43;;;3.13;;
72127;SDS011;60000;51.030;7.024;2023-08-20T04:49:52;5.30;;;2.93;;
72127;SDS011;60000;51.030;7.024;2023-08-20T04:52:18;5.77;;;2.90;;
72127;SDS011;60000;51.030;7.024;2023-08-20T04:54:45;5.20;;;2.63;;
72127;SDS011;60000;51.030;7.024;2023-08-20T04:57:10;5.53;;;2.60;;
72127;SDS011;60000;51.030;7.024;2023-08-20T04:59:35;5.07;;;2.37;;
72127;SDS011;60000;51.030;7.024;2023-08-20T05:02:01;5.10;;;2.50;;
72127;SDS011;60000;51.030;7.024;2023-08-20T05:04:26;4.88;;;2.40;;
72127;SDS011;60000;51.030;7.024;2023-08-20T05:06:51;5.63;;;2.17;;
72127;SDS011;60000;51.030;7.024;2023-08-20T05:09:17;4.80;;;2.30;;
72127;SDS011;60000;51.030;7.024;2023-08-20T05:11:42;5.10;;;2.60;;
72127;SDS011;60000;51.030;7.024;2023-08-20T05:14:07;5.50;;;2.80;;
72127;SDS011;60000;51.030;7.024;2023-08-20T05:16:33;5.93;;;2.77;;
72127;SDS011;60000;51.030;7.024;2023-08-20T05:18:58;6.10;;;2.70;;
72127;SDS011;60000;51.030;7.024;2023-08-20T05:21:24;5.97;;;2.50;;
72127;SDS011;60000;51.030;7.024;2023-08-20T05:23:49;5.70;;;2.80;;
72127;SDS011;60000;51.030;7.024;2023-08-20T05:26:14;5.80;;;2.80;;
72127;SDS011;60000;51.030;7.024;2023-08-20T05:28:40;5.80;;;2.83;;
72127;SDS011;60000;51.030;7.024;2023-08-20T05:31:05;6.17;;;3.23;;
72127;SDS011;60000;51.030;7.024;2023-08-20T05:33:30;5.93;;;2.97;;
72127;SDS011;60000;51.030;7.024;2023-08-20T05:35:56;5.72;;;2.78;;
72127;SDS011;60000;51.030;7.024;2023-08-20T05:38:21;6.40;;;3.13;;
72127;SDS011;60000;51.030;7.024;2023-08-20T05:40:46;8.47;;;4.00;;
72127;SDS011;60000;51.030;7.024;2023-08-20T05:43:12;6.70;;;3.40;;
72127;SDS011;60000;51.030;7.024;2023-08-20T05:45:37;6.57;;;3.60;;
72127;SDS011;60000;51.030;7.024;2023-08-20T05:48:03;6.55;;;3.58;;
72127;SDS011;60000;51.030;7.024;2023-08-20T05:50:29;7.43;;;3.83;;
72127;SDS011;60000;51.030;7.024;2023-08-20T05:52:54;7.53;;;4.37;;
72127;SDS011;60000;51.030;7.024;2023-08-20T05:55:20;8.63;;;4.70;;
72127;SDS011;60000;51.030;7.024;2023-08-20T05:57:45;8.30;;;4.10;;
72127;SDS011;60000;51.030;7.024;2023-08-20T06:00:10;8.10;;;4.23;;
72127;SDS011;60000;51.030;7.024;2023-08-20T06:02:36;8.27;;;4.50;;
72127;SDS011;60000;51.030;7.024;2023-08-20T06:05:03;7.35;;;4.38;;
72127;SDS011;60000;51.030;7.024;2023-08-20T06:07:31;7.10;;;4.45;;
72127;SDS011;60000;51.030;7.024;2023-08-20T06:09:57;7.27;;;4.57;;
72127;SDS011;60000;51.030;7.024;2023-08-20T06:12:23;8.80;;;4.80;;
72127;SDS011;60000;51.030;7.024;2023-08-20T06:14:48;7.22;;;3.97;;
72127;SDS011;60000;51.030;7.024;2023-08-20T06:17:14;8.90;;;4.73;;
72127;SDS011;60000;51.030;7.024;2023-08-20T06:19:39;7.47;;;4.35;;
72127;SDS011;60000;51.030;7.024;2023-08-20T06:22:05;8.87;;;6.07;;
72127;SDS011;60000;51.030;7.024;2023-08-20T06:24:30;8.13;;;4.73;;
72127;SDS011;60000;51.030;7.024;2023-08-20T06:26:55;8.30;;;5.00;;
72127;SDS011;60000;51.030;7.024;2023-08-20T06:29:21;9.17;;;4.80;;
72127;SDS011;60000;51.030;7.024;2023-08-20T06:31:49;8.02;;;4.63;;
72127;SDS011;60000;51.030;7.024;2023-08-20T06:34:15;9.32;;;5.00;;
72127;SDS011;60000;51.030;7.024;2023-08-20T06:36:40;7.77;;;4.60;;
72127;SDS011;60000;51.030;7.024;2023-08-20T06:39:06;8.20;;;4.63;;
72127;SDS011;60000;51.030;7.024;2023-08-20T06:41:31;8.53;;;4.93;;
72127;SDS011;60000;51.030;7.024;2023-08-20T06:43:57;7.83;;;4.63;;
72127;SDS011;60000;51.030;7.024;2023-08-20T06:46:22;9.50;;;5.50;;
72127;SDS011;60000;51.030;7.024;2023-08-20T06:48:47;9.83;;;5.50;;
72127;SDS011;60000;51.030;7.024;2023-08-20T06:51:13;9.30;;;5.27;;
72127;SDS011;60000;51.030;7.024;2023-08-20T06:53:42;9.40;;;5.68;;
72127;SDS011;60000;51.030;7.024;2023-08-20T06:56:08;9.90;;;5.40;;
72127;SDS011;60000;51.030;7.024;2023-08-20T06:58:34;8.90;;;5.22;;
72127;SDS011;60000;51.030;7.024;2023-08-20T07:01:00;9.00;;;5.32;;
72127;SDS011;60000;51.030;7.024;2023-08-20T07:03:32;8.80;;;5.30;;
72127;SDS011;60000;51.030;7.024;2023-08-20T07:05:59;13.23;;;4.93;;
72127;SDS011;60000;51.030;7.024;2023-08-20T07:08:24;9.00;;;5.47;;
72127;SDS011;60000;51.030;7.024;2023-08-20T07:10:49;10.77;;;5.07;;
72127;SDS011;60000;51.030;7.024;2023-08-20T07:13:15;9.80;;;5.43;;
72127;SDS011;60000;51.030;7.024;2023-08-20T07:15:40;10.13;;;4.80;;
72127;SDS011;60000;51.030;7.024;2023-08-20T07:18:05;8.80;;;5.00;;
72127;SDS011;60000;51.030;7.024;2023-08-20T07:20:31;9.30;;;5.43;;
72127;SDS011;60000;51.030;7.024;2023-08-20T07:22:56;8.70;;;5.03;;
72127;SDS011;60000;51.030;7.024;2023-08-20T07:25:21;8.43;;;4.70;;
72127;SDS011;60000;51.030;7.024;2023-08-20T07:27:47;7.90;;;4.63;;
72127;SDS011;60000;51.030;7.024;2023-08-20T07:30:12;8.43;;;5.10;;
72127;SDS011;60000;51.030;7.024;2023-08-20T07:32:38;10.40;;;5.30;;
72127;SDS011;60000;51.030;7.024;2023-08-20T07:35:03;7.83;;;4.63;;
72127;SDS011;60000;51.030;7.024;2023-08-20T07:37:29;8.43;;;4.80;;
72127;SDS011;60000;51.030;7.024;2023-08-20T07:39:54;9.07;;;5.07;;
72127;SDS011;60000;51.030;7.024;2023-08-20T07:42:19;7.90;;;4.33;;
72127;SDS011;60000;51.030;7.024;2023-08-20T07:44:44;13.20;;;4.90;;
72127;SDS011;60000;51.030;7.024;2023-08-20T07:47:10;11.20;;;5.47;;
72127;SDS011;60000;51.030;7.024;2023-08-20T07:49:35;10.10;;;5.43;;
72127;SDS011;60000;51.030;7.024;2023-08-20T07:52:00;11.87;;;5.50;;
72127;SDS011;60000;51.030;7.024;2023-08-20T07:54:26;15.10;;;6.40;;
72127;SDS011;60000;51.030;7.024;2023-08-20T07:56:53;13.18;;;6.05;;
72127;SDS011;60000;51.030;7.024;2023-08-20T07:59:18;13.60;;;5.87;;
72127;SDS011;60000;51.030;7.024;2023-08-20T08:01:44;14.20;;;7.03;;
72127;SDS011;60000;51.030;7.024;2023-08-20T08:04:09;16.20;;;6.93;;
72127;SDS011;60000;51.030;7.024;2023-08-20T08:06:34;18.20;;;8.53;;
72127;SDS011;60000;51.030;7.024;2023-08-20T08:09:14;12.40;;;5.93;;
72127;SDS011;60000;51.030;7.024;2023-08-20T08:11:47;15.57;;;7.22;;
72127;SDS011;60000;51.030;7.024;2023-08-20T08:14:13;12.27;;;5.80;;
72127;SDS011;60000;51.030;7.024;2023-08-20T08:16:38;9.50;;;4.90;;
72127;SDS011;60000;51.030;7.024;2023-08-20T08:19:03;9.13;;;4.90;;
72127;SDS011;60000;51.030;7.024;2023-08-20T08:21:29;11.03;;;4.53;;
72127;SDS011;60000;51.030;7.024;2023-08-20T08:23:54;10.63;;;5.73;;
72127;SDS011;60000;51.030;7.024;2023-08-20T08:26:20;11.43;;;5.55;;
72127;SDS011;60000;51.030;7.024;2023-08-20T08:28:45;10.37;;;4.80;;
72127;SDS011;60000;51.030;7.024;2023-08-20T08:31:10;9.90;;;5.83;;
72127;SDS011;60000;51.030;7.024;2023-08-20T08:33:36;9.70;;;4.87;;
72127;SDS011;60000;51.030;7.024;2023-08-20T08:36:01;9.47;;;4.60;;
72127;SDS011;60000;51.030;7.024;2023-08-20T08:38:26;9.07;;;4.77;;
72127;SDS011;60000;51.030;7.024;2023-08-20T08:40:52;12.27;;;6.83;;
72127;SDS011;60000;51.030;7.024;2023-08-20T08:43:18;8.98;;;5.10;;
72127;SDS011;60000;51.030;7.024;2023-08-20T08:45:46;8.90;;;4.47;;
72127;SDS011;60000;51.030;7.024;2023-08-20T08:48:15;8.02;;;4.57;;
72127;SDS011;60000;51.030;7.024;2023-08-20T08:50:42;6.93;;;4.32;;
72127;SDS011;60000;51.030;7.024;2023-08-20T08:53:08;7.22;;;3.88;;
72127;SDS011;60000;51.030;7.024;2023-08-20T08:55:33;8.47;;;4.07;;
72127;SDS011;60000;51.030;7.024;2023-08-20T08:57:59;7.10;;;4.13;;
72127;SDS011;60000;51.030;7.024;2023-08-20T09:00:24;7.90;;;4.30;;
72127;SDS011;60000;51.030;7.024;2023-08-20T09:02:49;10.73;;;5.82;;
72127;SDS011;60000;51.030;7.024;2023-08-20T09:05:15;7.00;;;3.97;;
72127;SDS011;60000;51.030;7.024;2023-08-20T09:07:42;7.67;;;4.43;;
72127;SDS011;60000;51.030;7.024;2023-08-20T09:10:09;8.05;;;4.35;;
72127;SDS011;60000;51.030;7.024;2023-08-20T09:12:34;9.93;;;4.37;;
72127;SDS011;60000;51.030;7.024;2023-08-20T09:15:00;8.23;;;4.38;;
72127;SDS011;60000;51.030;7.024;2023-08-20T09:17:26;8.00;;;4.03;;
72127;SDS011;60000;51.030;7.024;2023-08-20T09:19:53;7.68;;;3.95;;
72127;SDS011;60000;51.030;7.024;2023-08-20T09:22:21;9.33;;;4.30;;
72127;SDS011;60000;51.030;7.024;2023-08-20T09:24:51;7.07;;;3.50;;
72127;SDS011;60000;51.030;7.024;2023-08-20T09:27:21;6.35;;;3.53;;
72127;SDS011;60000;51.030;7.024;2023-08-20T09:32:30;6.78;;;3.38;;
72127;SDS011;60000;51.030;7.024;2023-08-20T09:34:55;7.30;;;3.50;;
72127;SDS011;60000;51.030;7.024;2023-08-20T09:37:21;6.70;;;3.40;;
72127;SDS011;60000;51.030;7.024;2023-08-20T09:39:48;6.30;;;3.25;;
72127;SDS011;60000;51.030;7.024;2023-08-20T09:42:14;8.93;;;4.23;;
72127;SDS011;60000;51.030;7.024;2023-08-20T09:44:41;7.00;;;3.93;;
72127;SDS011;60000;51.030;7.024;2023-08-20T09:47:08;7.03;;;3.80;;
72127;SDS011;60000;51.030;7.024;2023-08-20T09:49:41;6.38;;;3.40;;
72127;SDS011;60000;51.030;7.024;2023-08-20T09:52:08;9.27;;;4.35;;
72127;SDS011;60000;51.030;7.024;2023-08-20T09:57:32;7.22;;;3.78;;
72127;SDS011;60000;51.030;7.024;2023-08-20T09:59:59;7.15;;;4.20;;
72127;SDS011;60000;51.030;7.024;2023-08-20T10:02:25;7.03;;;3.55;;
72127;SDS011;60000;51.030;7.024;2023-08-20T10:04:51;6.47;;;3.30;;
72127;SDS011;60000;51.030;7.024;2023-08-20T10:07:17;6.88;;;3.65;;
72127;SDS011;60000;51.030;7.024;2023-08-20T10:09:43;7.78;;;3.78;;
72127;SDS011;60000;51.030;7.024;2023-08-20T10:12:11;6.70;;;3.70;;
72127;SDS011;60000;51.030;7.024;2023-08-20T10:14:38;8.80;;;4.60;;
72127;SDS011;60000;51.030;7.024;2023-08-20T10:17:10;8.80;;;4.50;;
72127;SDS011;60000;51.030;7.024;2023-08-20T10:19:37;9.17;;;5.10;;
72127;SDS011;60000;51.030;7.024;2023-08-20T10:22:03;8.60;;;4.80;;
72127;SDS011;60000;51.030;7.024;2023-08-20T10:24:38;9.63;;;5.45;;
72127;SDS011;60000;51.030;7.024;2023-08-20T10:27:09;9.32;;;4.80;;
72127;SDS011;60000;51.030;7.024;2023-08-20T10:29:38;9.02;;;4.85;;
72127;SDS011;60000;51.030;7.024;2023-08-20T10:32:06;9.50;;;5.60;;
72127;SDS011;60000;51.030;7.024;2023-08-20T10:34:35;10.63;;;6.07;;
72127;SDS011;60000;51.030;7.024;2023-08-20T10:37:14;7.60;;;4.28;;
72127;SDS011;60000;51.030;7.024;2023-08-20T10:39:39;7.47;;;4.55;;
72127;SDS011;60000;51.030;7.024;2023-08-20T10:42:28;7.03;;;4.13;;
72127;SDS011;60000;51.030;7.024;2023-08-20T10:47:21;6.97;;;3.63;;
72127;SDS011;60000;51.030;7.024;2023-08-20T10:49:50;6.97;;;3.60;;
72127;SDS011;60000;51.030;7.024;2023-08-20T10:52:18;6.78;;;3.95;;
72127;SDS011;60000;51.030;7.024;2023-08-20T10:54:44;8.43;;;4.10;;
72127;SDS011;60000;51.030;7.024;2023-08-20T10:57:09;7.27;;;3.70;;
72127;SDS011;60000;51.030;7.024;2023-08-20T10:59:35;6.60;;;3.53;;
72127;SDS011;60000;51.030;7.024;2023-08-20T11:02:05;7.20;;;3.67;;
72127;SDS011;60000;51.030;7.024;2023-08-20T11:04:36;8.73;;;4.28;;
72127;SDS011;60000;51.030;7.024;2023-08-20T11:07:03;7.37;;;3.47;;
72127;SDS011;60000;51.030;7.024;2023-08-20T11:09:30;7.85;;;4.18;;
72127;SDS011;60000;51.030;7.024;2023-08-20T11:11:56;7.85;;;4.25;;
72127;SDS011;60000;51.030;7.024;2023-08-20T11:14:23;7.50;;;4.40;;
72127;SDS011;60000;51.030;7.024;2023-08-20T11:16:49;8.27;;;4.97;;
72127;SDS011;60000;51.030;7.024;2023-08-20T11:19:18;8.27;;;4.40;;
72127;SDS011;60000;51.030;7.024;2023-08-20T11:21:45;7.97;;;4.60;;
72127;SDS011;60000;51.030;7.024;2023-08-20T11:24:11;9.53;;;5.30;;
72127;SDS011;60000;51.030;7.024;2023-08-20T11:26:38;7.45;;;4.28;;
72127;SDS011;60000;51.030;7.024;2023-08-20T11:29:08;8.60;;;4.72;;
72127;SDS011;60000;51.030;7.024;2023-08-20T11:31:35;9.37;;;4.70;;
72127;SDS011;60000;51.030;7.024;2023-08-20T11:34:04;8.20;;;4.72;;
72127;SDS011;60000;51.030;7.024;2023-08-20T11:36:30;7.97;;;4.25;;
72127;SDS011;60000;51.030;7.024;2023-08-20T11:38:56;7.27;;;4.33;;
72127;SDS011;60000;51.030;7.024;2023-08-20T11:41:23;8.97;;;4.80;;
72127;SDS011;60000;51.030;7.024;2023-08-20T11:43:49;7.78;;;5.05;;
72127;SDS011;60000;51.030;7.024;2023-08-20T11:46:15;10.20;;;5.80;;
72127;SDS011;60000;51.030;7.024;2023-08-20T11:48:58;7.20;;;4.30;;
72127;SDS011;60000;51.030;7.024;2023-08-20T11:51:23;7.80;;;4.30;;
72127;SDS011;60000;51.030;7.024;2023-08-20T11:53:49;7.40;;;4.63;;
72127;SDS011;60000;51.030;7.024;2023-08-20T11:56:14;10.70;;;4.73;;
72127;SDS011;60000;51.030;7.024;2023-08-20T11:58:39;7.97;;;5.10;;
72127;SDS011;60000;51.030;7.024;2023-08-20T12:03:32;6.70;;;4.10;;
72127;SDS011;60000;51.030;7.024;2023-08-20T12:05:57;8.03;;;4.27;;
72127;SDS011;60000;51.030;7.024;2023-08-20T12:08:23;8.20;;;4.97;;
72127;SDS011;60000;51.030;7.024;2023-08-20T12:10:48;7.53;;;4.75;;
72127;SDS011;60000;51.030;7.024;2023-08-20T12:13:13;8.13;;;4.77;;
72127;SDS011;60000;51.030;7.024;2023-08-20T12:15:39;7.73;;;4.80;;
72127;SDS011;60000;51.030;7.024;2023-08-20T12:18:04;8.67;;;4.80;;
72127;SDS011;60000;51.030;7.024;2023-08-20T12:20:31;8.13;;;4.35;;
72127;SDS011;60000;51.030;7.024;2023-08-20T12:23:01;7.20;;;4.40;;
72127;SDS011;60000;51.030;7.024;2023-08-20T12:25:29;7.63;;;4.40;;
72127;SDS011;60000;51.030;7.024;2023-08-20T12:27:56;8.27;;;4.50;;
72127;SDS011;60000;51.030;7.024;2023-08-20T12:30:21;8.03;;;4.87;;
72127;SDS011;60000;51.030;7.024;2023-08-20T12:32:47;6.90;;;4.40;;
72127;SDS011;60000;51.030;7.024;2023-08-20T12:35:12;7.63;;;4.30;;
72127;SDS011;60000;51.030;7.024;2023-08-20T12:37:38;8.63;;;4.70;;
72127;SDS011;60000;51.030;7.024;2023-08-20T12:40:03;8.97;;;5.53;;
72127;SDS011;60000;51.030;7.024;2023-08-20T12:42:32;8.57;;;5.25;;
72127;SDS011;60000;51.030;7.024;2023-08-20T12:44:57;7.63;;;4.67;;
72127;SDS011;60000;51.030;7.024;2023-08-20T12:47:23;8.45;;;4.40;;
72127;SDS011;60000;51.030;7.024;2023-08-20T12:49:48;8.87;;;5.10;;
72127;SDS011;60000;51.030;7.024;2023-08-20T12:52:13;8.80;;;4.57;;
72127;SDS011;60000;51.030;7.024;2023-08-20T12:54:38;7.50;;;4.43;;
72127;SDS011;60000;51.030;7.024;2023-08-20T12:57:04;6.63;;;3.83;;
72127;SDS011;60000;51.030;7.024;2023-08-20T12:59:29;8.37;;;4.67;;
72127;SDS011;60000;51.030;7.024;2023-08-20T13:01:54;9.27;;;5.03;;
72127;SDS011;60000;51.030;7.024;2023-08-20T13:04:20;8.07;;;4.53;;
72127;SDS011;60000;51.030;7.024;2023-08-20T13:06:45;8.20;;;4.53;;
72127;SDS011;60000;51.030;7.024;2023-08-20T13:09:12;7.40;;;4.05;;
72127;SDS011;60000;51.030;7.024;2023-08-20T13:11:40;10.13;;;4.60;;
72127;SDS011;60000;51.030;7.024;2023-08-20T13:14:07;6.88;;;4.28;;
72127;SDS011;60000;51.030;7.024;2023-08-20T13:16:33;8.30;;;4.50;;
72127;SDS011;60000;51.030;7.024;2023-08-20T13:18:59;7.53;;;4.20;;
72127;SDS011;60000;51.030;7.024;2023-08-20T13:21:24;6.50;;;3.90;;
72127;SDS011;60000;51.030;7.024;2023-08-20T13:23:49;8.43;;;4.70;;
72127;SDS011;60000;51.030;7.024;2023-08-20T13:26:15;7.40;;;4.10;;
72127;SDS011;60000;51.030;7.024;2023-08-20T13:28:40;8.17;;;4.40;;
72127;SDS011;60000;51.030;7.024;2023-08-20T13:31:05;6.60;;;4.00;;
72127;SDS011;60000;51.030;7.024;2023-08-20T13:33:30;8.33;;;3.77;;
72127;SDS011;60000;51.030;7.024;2023-08-20T13:35:56;7.40;;;4.10;;
72127;SDS011;60000;51.030;7.024;2023-08-20T13:38:22;6.45;;;3.53;;
72127;SDS011;60000;51.030;7.024;2023-08-20T13:40:47;6.57;;;3.93;;
72127;SDS011;60000;51.030;7.024;2023-08-20T13:43:13;6.05;;;3.22;;
72127;SDS011;60000;51.030;7.024;2023-08-20T13:45:39;6.70;;;3.57;;
72127;SDS011;60000;51.030;7.024;2023-08-20T13:48:04;6.30;;;3.42;;
72127;SDS011;60000;51.030;7.024;2023-08-20T13:50:30;7.37;;;4.00;;
72127;SDS011;60000;51.030;7.024;2023-08-20T13:52:56;6.50;;;3.60;;
72127;SDS011;60000;51.030;7.024;2023-08-20T13:55:21;7.00;;;3.70;;
72127;SDS011;60000;51.030;7.024;2023-08-20T13:57:46;7.37;;;3.70;;
72127;SDS011;60000;51.030;7.024;2023-08-20T14:00:12;7.17;;;4.07;;
72127;SDS011;60000;51.030;7.024;2023-08-20T14:02:38;6.40;;;3.58;;
72127;SDS011;60000;51.030;7.024;2023-08-20T14:05:04;6.32;;;3.92;;
72127;SDS011;60000;51.030;7.024;2023-08-20T14:07:29;7.13;;;3.90;;
72127;SDS011;60000;51.030;7.024;2023-08-20T14:09:55;6.80;;;3.37;;
72127;SDS011;60000;51.030;7.024;2023-08-20T14:12:20;6.37;;;3.30;;
72127;SDS011;60000;51.030;7.024;2023-08-20T14:14:45;6.13;;;3.03;;
72127;SDS011;60000;51.030;7.024;2023-08-20T14:17:11;5.77;;;3.10;;
72127;SDS011;60000;51.030;7.024;2023-08-20T14:19:36;7.10;;;3.50;;
72127;SDS011;60000;51.030;7.024;2023-08-20T14:22:01;6.87;;;3.73;;
72127;SDS011;60000;51.030;7.024;2023-08-20T14:24:27;6.27;;;3.13;;
72127;SDS011;60000;51.030;7.024;2023-08-20T14:26:52;6.87;;;2.97;;
72127;SDS011;60000;51.030;7.024;2023-08-20T14:29:17;6.47;;;3.03;;
72127;SDS011;60000;51.030;7.024;2023-08-20T14:31:43;6.40;;;3.33;;
72127;SDS011;60000;51.030;7.024;2023-08-20T14:34:08;6.77;;;3.30;;
72127;SDS011;60000;51.030;7.024;2023-08-20T14:36:33;6.57;;;3.40;;
72127;SDS011;60000;51.030;7.024;2023-08-20T14:38:59;6.97;;;3.73;;
72127;SDS011;60000;51.030;7.024;2023-08-20T14:41:24;7.00;;;3.63;;
72127;SDS011;60000;51.030;7.024;2023-08-20T14:43:49;6.60;;;3.30;;
72127;SDS011;60000;51.030;7.024;2023-08-20T14:46:15;7.17;;;3.40;;
72127;SDS011;60000;51.030;7.024;2023-08-20T14:48:40;7.10;;;3.83;;
72127;SDS011;60000;51.030;7.024;2023-08-20T14:51:07;7.60;;;3.83;;
72127;SDS011;60000;51.030;7.024;2023-08-20T14:53:33;6.93;;;3.47;;
72127;SDS011;60000;51.030;7.024;2023-08-20T14:55:59;6.60;;;4.10;;